createdAt,value
2022-10-31T15:15:51.235Z,101116.40
2022-10-31T15:18:28.147Z,101117.84
2022-10-31T15:20:56.464Z,101107.73
2022-10-31T15:23:27.548Z,101108.73
2022-10-31T15:26:02.270Z,101103.48
2022-10-31T15:28:29.801Z,101098.99
2022-10-31T15:31:02.079Z,101092.91
2022-10-31T15:33:45.336Z,101085.73
2022-10-31T15:36:29.146Z,101085.59
2022-10-31T15:38:58.885Z,101083.64
2022-10-31T15:41:34.522Z,101079.13
2022-10-31T15:44:08.232Z,101078.11
2022-10-31T15:46:34.866Z,101079.66
2022-10-31T15:49:01.599Z,101073.98
2022-10-31T15:51:35.033Z,101068.33
2022-10-31T15:54:01.690Z,101059.31
2022-10-31T15:56:32.101Z,101060.88
2022-10-31T15:59:00.988Z,101053.69
2022-10-31T16:01:33.098Z,101050.84
2022-10-31T16:04:02.807Z,101047.67
2022-10-31T16:06:29.642Z,101042.98
2022-10-31T16:08:56.114Z,101043.98
2022-10-31T16:11:40.828Z,101041.09
2022-10-31T16:14:10.201Z,101046.02
2022-10-31T16:16:47.374Z,101049.81
2022-10-31T16:19:20.481Z,101051.05
2022-10-31T16:21:49.790Z,101047.13
2022-10-31T16:24:20.721Z,101051.89
2022-10-31T16:26:53.750Z,101052.91
2022-10-31T16:29:33.620Z,101056.89
2022-10-31T16:32:00.170Z,101053.28
2022-10-31T16:34:27.265Z,101049.85
2022-10-31T16:36:54.303Z,101045.00
2022-10-31T16:39:21.098Z,101040.63
2022-10-31T16:41:52.687Z,101043.63
2022-10-31T16:44:25.366Z,101040.40
2022-10-31T16:47:07.090Z,101038.88
2022-10-31T16:49:33.494Z,101039.46
2022-10-31T16:51:59.895Z,101037.24
2022-10-31T16:54:26.262Z,101035.69
2022-10-31T16:56:52.762Z,101029.30
2022-10-31T16:59:19.192Z,101024.64
2022-10-31T17:01:49.846Z,101029.09
2022-10-31T17:04:16.708Z,101029.30
2022-10-31T17:06:43.224Z,101027.90
2022-10-31T17:09:09.801Z,101024.73
2022-10-31T17:11:37.412Z,101022.25
2022-10-31T17:14:05.099Z,101021.63
2022-10-31T17:16:31.491Z,101012.61
2022-10-31T17:18:57.882Z,101009.80
2022-10-31T17:21:26.312Z,101011.01
2022-10-31T17:23:52.734Z,101005.09
2022-10-31T17:26:19.895Z,101005.29
2022-10-31T17:28:46.550Z,101009.30
2022-10-31T17:31:23.601Z,101007.31
2022-10-31T17:33:50.654Z,101003.05
2022-10-31T17:36:17.390Z,100999.55
2022-10-31T17:38:43.850Z,100999.00
2022-10-31T17:41:11.434Z,100999.41
2022-10-31T17:43:38.404Z,100989.46
2022-10-31T17:46:05.656Z,100986.81
2022-10-31T17:48:34.747Z,100987.39
2022-10-31T17:51:03.246Z,100987.88
2022-10-31T17:53:34.630Z,100991.05
2022-10-31T17:56:06.258Z,100993.95
2022-10-31T17:58:34.381Z,100992.51
2022-10-31T18:01:01.730Z,100994.97
2022-10-31T18:03:28.304Z,100989.80
2022-10-31T18:05:57.470Z,100990.71
2022-10-31T18:08:29.066Z,100987.68
2022-10-31T18:10:56.433Z,100985.11
2022-10-31T18:13:23.159Z,100975.27
2022-10-31T18:15:49.609Z,100966.23
2022-10-31T18:18:16.120Z,100958.70
2022-10-31T18:20:42.857Z,100958.41
2022-10-31T18:23:09.519Z,100950.80
2022-10-31T18:25:38.771Z,100950.77
2022-10-31T18:28:06.511Z,100951.65
2022-10-31T18:30:33.550Z,100949.96
2022-10-31T18:33:00.021Z,100948.92
2022-10-31T18:35:26.522Z,100948.14
2022-10-31T18:37:53.083Z,100946.89
2022-10-31T18:40:19.491Z,100945.48
2022-10-31T18:42:45.974Z,100949.58
2022-10-31T18:45:31.176Z,100948.28
2022-10-31T18:47:59.116Z,100948.14
2022-10-31T18:50:26.074Z,100944.43
2022-10-31T18:52:52.551Z,100926.69
2022-10-31T18:55:18.979Z,100920.77
2022-10-31T18:57:46.718Z,100926.13
2022-10-31T19:00:17.798Z,100924.97
2022-10-31T19:02:44.240Z,100929.23
2022-10-31T19:05:10.703Z,100928.57
2022-10-31T19:07:37.108Z,100929.86
2022-10-31T19:10:04.390Z,100928.92
2022-10-31T19:12:33.130Z,100924.52
2022-10-31T19:14:59.595Z,100918.00
2022-10-31T19:17:26.092Z,100919.31
2022-10-31T19:19:52.645Z,100920.98
2022-10-31T19:22:19.091Z,100915.89
2022-10-31T19:24:45.517Z,100907.38
2022-10-31T19:27:12.036Z,100904.57
2022-10-31T19:29:40.120Z,100904.82
2022-10-31T19:32:06.529Z,100907.28
2022-10-31T19:34:32.961Z,100908.55
2022-10-31T19:36:59.510Z,100900.42
2022-10-31T19:39:25.997Z,100895.46
2022-10-31T19:41:52.610Z,100895.56
2022-10-31T19:44:19.189Z,100885.96
2022-10-31T19:46:54.110Z,100880.14
2022-10-31T19:49:21.705Z,100877.81
2022-10-31T19:51:48.236Z,100875.41
2022-10-31T19:54:14.773Z,100866.02
2022-10-31T19:56:41.358Z,100866.73
2022-10-31T19:59:08.097Z,100851.87
2022-10-31T20:01:34.919Z,100839.27
2022-10-31T20:04:01.583Z,100831.84
2022-10-31T20:06:37.037Z,100825.04
2022-10-31T20:09:07.924Z,100823.98
2022-10-31T20:11:36.832Z,100823.55
2022-10-31T20:14:04.032Z,100820.61
2022-10-31T20:16:30.665Z,100823.38
2022-10-31T20:18:59.496Z,100829.77
2022-10-31T20:21:31.054Z,100828.45
2022-10-31T20:24:00.168Z,100825.04
2022-10-31T20:26:28.839Z,100815.88
2022-10-31T20:28:56.886Z,100808.27
2022-10-31T20:31:25.679Z,100806.33
2022-10-31T20:33:53.637Z,100798.52
2022-10-31T20:36:23.532Z,100795.79
2022-10-31T20:38:52.312Z,100793.33
2022-10-31T20:41:19.080Z,100791.11
2022-10-31T20:43:45.829Z,100792.11
2022-10-31T20:46:21.425Z,100779.81
2022-10-31T20:48:48.540Z,100770.58
2022-10-31T20:51:24.009Z,100767.05
2022-10-31T20:53:51.990Z,100770.70
2022-10-31T20:56:20.492Z,100773.27
2022-10-31T20:58:48.005Z,100787.85
2022-10-31T21:01:23.250Z,100798.89
2022-10-31T21:03:51.060Z,100808.65
2022-10-31T21:06:19.060Z,100811.02
2022-10-31T21:08:46.111Z,100811.95
2022-10-31T21:11:16.161Z,100806.30
2022-10-31T21:13:44.815Z,100793.16
2022-10-31T21:16:21.392Z,100791.80
2022-10-31T21:18:49.414Z,100798.70
2022-10-31T21:21:21.748Z,100804.45
2022-10-31T21:23:53.236Z,100795.67
2022-10-31T21:26:22.737Z,100783.00
2022-10-31T21:28:52.139Z,100775.52
2022-10-31T21:31:18.645Z,100773.30
2022-10-31T21:33:46.106Z,100784.07
2022-10-31T21:36:13.941Z,100784.12
2022-10-31T21:38:41.402Z,100785.83
2022-10-31T21:41:11.477Z,100779.58
2022-10-31T21:43:40.130Z,100778.19
2022-10-31T21:46:12.268Z,100772.34
2022-10-31T21:48:42.130Z,100768.23
2022-10-31T21:51:11.260Z,100760.91
2022-10-31T21:53:56.792Z,100755.88
2022-10-31T21:56:24.552Z,100746.98
2022-10-31T21:58:52.600Z,100739.02
2022-10-31T22:01:20.027Z,100731.79
2022-10-31T22:03:47.352Z,100731.12
2022-10-31T22:06:14.629Z,100731.30
2022-10-31T22:08:41.521Z,100733.52
2022-10-31T22:11:13.710Z,100740.95
2022-10-31T22:13:42.086Z,100734.27
2022-10-31T22:16:17.820Z,100736.27
2022-10-31T22:18:48.646Z,100742.77
2022-10-31T22:21:17.741Z,100740.68
2022-10-31T22:23:45.786Z,100733.33
2022-10-31T22:26:15.046Z,100725.06
2022-10-31T22:28:48.367Z,100725.07
2022-10-31T22:31:17.742Z,100729.48
2022-10-31T22:33:45.945Z,100726.31
2022-10-31T22:36:20.136Z,100723.56
2022-10-31T22:38:47.962Z,100720.77
2022-10-31T22:41:16.974Z,100722.58
2022-10-31T22:43:44.572Z,100712.79
2022-10-31T22:46:19.953Z,100710.04
2022-10-31T22:48:52.165Z,100709.71
2022-10-31T22:51:21.125Z,100705.29
2022-10-31T22:53:51.406Z,100705.80
2022-10-31T22:56:20.460Z,100700.37
2022-10-31T22:58:47.993Z,100696.46
2022-10-31T23:01:17.785Z,100691.38
2022-10-31T23:03:45.302Z,100694.19
2022-10-31T23:06:14.780Z,100699.16
2022-10-31T23:08:42.110Z,100695.48
2022-10-31T23:11:21.698Z,100697.54
2022-10-31T23:14:09.458Z,100701.98
2022-10-31T23:16:44.908Z,100704.88
2022-10-31T23:19:18.770Z,100699.46
2022-10-31T23:22:00.408Z,100699.77
2022-10-31T23:24:40.072Z,100703.60
2022-10-31T23:27:17.893Z,100709.23
2022-10-31T23:29:52.920Z,100702.64
2022-10-31T23:32:35.770Z,100697.58
2022-10-31T23:35:07.121Z,100690.52
2022-10-31T23:37:37.020Z,100688.73
2022-10-31T23:40:05.057Z,100683.42
2022-10-31T23:42:31.727Z,100687.95
2022-10-31T23:44:58.217Z,100679.98
2022-10-31T23:47:24.876Z,100672.41
2022-10-31T23:49:51.354Z,100666.90
2022-10-31T23:52:19.092Z,100667.91
2022-10-31T23:54:45.646Z,100664.70
2022-10-31T23:57:14.672Z,100664.27
2022-10-31T23:59:41.265Z,100662.86
